sensor_id;sensor_type;location;lat;lon;timestamp;pressure;altitude;pressure_sealevel;temperature;humidity
41222;BME280;26952;42.884;23.918;2023-02-26T00:02:21;94583.94;;;15.27;42.16
41222;BME280;26952;42.884;23.918;2023-02-26T00:04:46;94567.28;;;15.08;42.45
41222;BME280;26952;42.884;23.918;2023-02-26T00:07:12;94551.88;;;15.10;42.00
41222;BME280;26952;42.884;23.918;2023-02-26T00:09:37;94564.25;;;15.28;42.33
41222;BME280;26952;42.884;23.918;2023-02-26T00:12:03;94566.22;;;15.21;41.47
41222;BME280;26952;42.884;23.918;2023-02-26T00:14:28;94547.09;;;15.24;41.35
41222;BME280;26952;42.884;23.918;2023-02-26T00:19:32;94554.66;;;15.15;41.95
41222;BME280;26952;42.884;23.918;2023-02-26T00:21:58;94562.75;;;15.20;41.04
41222;BME280;26952;42.884;23.918;2023-02-26T00:24:23;94552.31;;;15.30;40.57
41222;BME280;26952;42.884;23.918;2023-02-26T00:26:49;94558.22;;;15.32;41.19
41222;BME280;26952;42.884;23.918;2023-02-26T00:29:14;94561.47;;;15.23;41.42
41222;BME280;26952;42.884;23.918;2023-02-26T00:31:40;94537.94;;;15.08;41.55
41222;BME280;26952;42.884;23.918;2023-02-26T00:34:10;94518.25;;;14.98;40.98
41222;BME280;26952;42.884;23.918;2023-02-26T00:42:10;94544.78;;;15.16;41.33
41222;BME280;26952;42.884;23.918;2023-02-26T00:44:36;94550.34;;;15.14;41.63
41222;BME280;26952;42.884;23.918;2023-02-26T00:52:14;94544.69;;;14.99;42.02
41222;BME280;26952;42.884;23.918;2023-02-26T00:54:43;94504.81;;;14.81;41.61
41222;BME280;26952;42.884;23.918;2023-02-26T00:57:08;94530.41;;;14.94;41.33
41222;BME280;26952;42.884;23.918;2023-02-26T00:59:34;94522.41;;;14.82;41.89
41222;BME280;26952;42.884;23.918;2023-02-26T01:01:59;94516.97;;;15.00;40.55
41222;BME280;26952;42.884;23.918;2023-02-26T01:04:25;94509.69;;;15.07;40.45
41222;BME280;26952;42.884;23.918;2023-02-26T01:06:53;94501.22;;;15.10;40.35
41222;BME280;26952;42.884;23.918;2023-02-26T01:09:28;94520.13;;;15.09;41.08
41222;BME280;26952;42.884;23.918;2023-02-26T01:11:57;94507.22;;;15.06;40.38
41222;BME280;26952;42.884;23.918;2023-02-26T01:14:25;94504.13;;;14.97;40.22
41222;BME280;26952;42.884;23.918;2023-02-26T01:17:13;94508.41;;;15.10;40.17
41222;BME280;26952;42.884;23.918;2023-02-26T01:20:20;94501.56;;;15.02;40.44
41222;BME280;26952;42.884;23.918;2023-02-26T01:23:08;94516.41;;;14.98;40.22
41222;BME280;26952;42.884;23.918;2023-02-26T01:25:48;94478.50;;;14.96;39.66
41222;BME280;26952;42.884;23.918;2023-02-26T01:28:14;94483.72;;;15.03;39.10
41222;BME280;26952;42.884;23.918;2023-02-26T01:30:40;94502.38;;;15.03;39.68
41222;BME280;26952;42.884;23.918;2023-02-26T01:33:13;94518.16;;;14.93;40.16
41222;BME280;26952;42.884;23.918;2023-02-26T01:35:43;94502.03;;;14.76;39.92
41222;BME280;26952;42.884;23.918;2023-02-26T01:49:27;94490.69;;;15.15;38.13
41222;BME280;26952;42.884;23.918;2023-02-26T01:52:00;94485.13;;;15.05;38.57
41222;BME280;26952;42.884;23.918;2023-02-26T01:54:31;94492.53;;;15.03;39.07
41222;BME280;26952;42.884;23.918;2023-02-26T01:57:17;94473.88;;;14.92;38.38
41222;BME280;26952;42.884;23.918;2023-02-26T01:59:46;94481.28;;;15.01;38.34
41222;BME280;26952;42.884;23.918;2023-02-26T02:02:15;94481.06;;;14.91;38.79
41222;BME280;26952;42.884;23.918;2023-02-26T02:04:42;94494.84;;;14.88;39.08
41222;BME280;26952;42.884;23.918;2023-02-26T02:07:09;94480.38;;;14.84;39.30
41222;BME280;26952;42.884;23.918;2023-02-26T02:09:34;94493.59;;;14.79;39.17
41222;BME280;26952;42.884;23.918;2023-02-26T02:12:07;94499.63;;;14.86;38.98
41222;BME280;26952;42.884;23.918;2023-02-26T02:31:47;94482.81;;;14.86;38.91
41222;BME280;26952;42.884;23.918;2023-02-26T02:34:18;94497.84;;;14.80;39.60
41222;BME280;26952;42.884;23.918;2023-02-26T02:37:05;94503.88;;;14.87;38.07
41222;BME280;26952;42.884;23.918;2023-02-26T02:42:23;94489.19;;;14.73;39.03
41222;BME280;26952;42.884;23.918;2023-02-26T02:44:52;94463.94;;;14.76;37.88
41222;BME280;26952;42.884;23.918;2023-02-26T02:47:20;94481.63;;;14.70;39.08
41222;BME280;26952;42.884;23.918;2023-02-26T02:52:30;94486.97;;;14.70;38.51
41222;BME280;26952;42.884;23.918;2023-02-26T02:55:02;94489.88;;;14.80;37.86
41222;BME280;26952;42.884;23.918;2023-02-26T02:57:33;94473.53;;;15.00;38.49
41222;BME280;26952;42.884;23.918;2023-02-26T03:00:03;94496.94;;;14.86;38.65
41222;BME280;26952;42.884;23.918;2023-02-26T03:02:45;94499.25;;;14.71;39.12
41222;BME280;26952;42.884;23.918;2023-02-26T03:05:13;94494.97;;;14.59;40.04
41222;BME280;26952;42.884;23.918;2023-02-26T03:07:45;94502.00;;;14.53;40.67
41222;BME280;26952;42.884;23.918;2023-02-26T03:10:11;94517.03;;;14.36;41.61
41222;BME280;26952;42.884;23.918;2023-02-26T03:12:37;94532.78;;;14.49;41.36
41222;BME280;26952;42.884;23.918;2023-02-26T03:15:03;94518.44;;;14.50;41.78
41222;BME280;26952;42.884;23.918;2023-02-26T03:17:42;94517.25;;;14.35;42.26
41222;BME280;26952;42.884;23.918;2023-02-26T03:20:25;94509.63;;;14.38;42.23
41222;BME280;26952;42.884;23.918;2023-02-26T03:31:08;94521.34;;;14.19;43.42
41222;BME280;26952;42.884;23.918;2023-02-26T03:34:14;94528.69;;;14.06;43.82
41222;BME280;26952;42.884;23.918;2023-02-26T03:37:25;94555.09;;;14.07;43.39
41222;BME280;26952;42.884;23.918;2023-02-26T03:39:56;94546.72;;;13.92;44.08
41222;BME280;26952;42.884;23.918;2023-02-26T03:42:54;94561.31;;;14.01;44.30
41222;BME280;26952;42.884;23.918;2023-02-26T03:45:29;94555.84;;;13.96;44.40
41222;BME280;26952;42.884;23.918;2023-02-26T03:47:57;94529.53;;;14.06;43.56
41222;BME280;26952;42.884;23.918;2023-02-26T03:50:25;94542.81;;;14.06;43.81
41222;BME280;26952;42.884;23.918;2023-02-26T03:52:53;94537.13;;;14.03;42.80
41222;BME280;26952;42.884;23.918;2023-02-26T03:55:25;94534.59;;;14.26;42.61
41222;BME280;26952;42.884;23.918;2023-02-26T03:57:52;94534.78;;;14.24;43.70
41222;BME280;26952;42.884;23.918;2023-02-26T04:00:18;94524.66;;;14.03;44.10
41222;BME280;26952;42.884;23.918;2023-02-26T04:02:53;94528.94;;;14.04;43.26
41222;BME280;26952;42.884;23.918;2023-02-26T04:05:25;94500.72;;;14.03;43.83
41222;BME280;26952;42.884;23.918;2023-02-26T04:07:51;94511.41;;;14.15;43.24
41222;BME280;26952;42.884;23.918;2023-02-26T04:10:20;94522.44;;;14.00;43.82
41222;BME280;26952;42.884;23.918;2023-02-26T04:12:48;94490.81;;;13.80;44.39
41222;BME280;26952;42.884;23.918;2023-02-26T04:15:14;94512.13;;;13.92;43.76
41222;BME280;26952;42.884;23.918;2023-02-26T04:17:39;94520.28;;;13.79;44.37
41222;BME280;26952;42.884;23.918;2023-02-26T04:20:05;94531.72;;;13.79;44.35
41222;BME280;26952;42.884;23.918;2023-02-26T04:22:35;94508.28;;;13.88;43.44
41222;BME280;26952;42.884;23.918;2023-02-26T04:25:01;94528.97;;;13.86;44.20
41222;BME280;26952;42.884;23.918;2023-02-26T04:27:26;94516.88;;;13.72;43.92
41222;BME280;26952;42.884;23.918;2023-02-26T04:29:52;94513.78;;;13.75;44.06
41222;BME280;26952;42.884;23.918;2023-02-26T04:32:17;94532.44;;;13.86;44.05
41222;BME280;26952;42.884;23.918;2023-02-26T04:34:43;94511.06;;;13.63;44.74
41222;BME280;26952;42.884;23.918;2023-02-26T04:37:08;94526.06;;;13.58;44.20
41222;BME280;26952;42.884;23.918;2023-02-26T04:39:33;94524.88;;;13.72;44.41
41222;BME280;26952;42.884;23.918;2023-02-26T04:41:59;94527.84;;;13.64;44.61
41222;BME280;26952;42.884;23.918;2023-02-26T04:44:24;94521.34;;;13.60;45.36
41222;BME280;26952;42.884;23.918;2023-02-26T04:46:50;94536.25;;;13.61;45.13
41222;BME280;26952;42.884;23.918;2023-02-26T04:49:15;94521.91;;;13.62;45.01
41222;BME280;26952;42.884;23.918;2023-02-26T04:51:41;94507.59;;;13.63;45.04
41222;BME280;26952;42.884;23.918;2023-02-26T04:54:06;94515.00;;;13.61;45.61
41222;BME280;26952;42.884;23.918;2023-02-26T04:56:31;94506.72;;;13.51;45.63
41222;BME280;26952;42.884;23.918;2023-02-26T04:58:57;94512.72;;;13.28;46.41
41222;BME280;26952;42.884;23.918;2023-02-26T05:01:23;94514.00;;;13.26;46.86
41222;BME280;26952;42.884;23.918;2023-02-26T05:03:48;94502.91;;;13.11;47.20
41222;BME280;26952;42.884;23.918;2023-02-26T05:06:14;94496.78;;;13.10;47.66
41222;BME280;26952;42.884;23.918;2023-02-26T05:08:39;94485.00;;;12.82;47.93
41222;BME280;26952;42.884;23.918;2023-02-26T05:11:10;94496.88;;;12.97;47.68
41222;BME280;26952;42.884;23.918;2023-02-26T05:13:35;94490.63;;;12.92;47.84
41222;BME280;26952;42.884;23.918;2023-02-26T05:16:01;94517.50;;;13.02;48.17
41222;BME280;26952;42.884;23.918;2023-02-26T05:18:26;94506.50;;;12.98;47.67
41222;BME280;26952;42.884;23.918;2023-02-26T05:20:53;94499.06;;;13.07;47.41
41222;BME280;26952;42.884;23.918;2023-02-26T05:23:19;94490.13;;;13.01;47.68
41222;BME280;26952;42.884;23.918;2023-02-26T05:25:45;94492.94;;;13.06;48.55
41222;BME280;26952;42.884;23.918;2023-02-26T05:28:10;94490.19;;;12.95;48.17
41222;BME280;26952;42.884;23.918;2023-02-26T05:30:35;94484.88;;;12.95;48.22
41222;BME280;26952;42.884;23.918;2023-02-26T05:33:01;94496.63;;;13.05;47.63
41222;BME280;26952;42.884;23.918;2023-02-26T05:35:26;94467.09;;;13.13;47.59
41222;BME280;26952;42.884;23.918;2023-02-26T05:37:52;94463.81;;;13.18;47.04
41222;BME280;26952;42.884;23.918;2023-02-26T05:40:17;94480.38;;;13.31;47.68
41222;BME280;26952;42.884;23.918;2023-02-26T05:42:42;94461.56;;;13.33;46.69
41222;BME280;26952;42.884;23.918;2023-02-26T05:45:09;94474.53;;;13.41;46.46
41222;BME280;26952;42.884;23.918;2023-02-26T05:47:35;94466.09;;;13.62;45.03
41222;BME280;26952;42.884;23.918;2023-02-26T05:50:01;94481.88;;;13.75;44.97
41222;BME280;26952;42.884;23.918;2023-02-26T05:52:26;94467.09;;;13.79;44.66
41222;BME280;26952;42.884;23.918;2023-02-26T05:54:52;94477.28;;;13.82;44.63
41222;BME280;26952;42.884;23.918;2023-02-26T05:57:17;94470.75;;;13.66;45.17
41222;BME280;26952;42.884;23.918;2023-02-26T05:59:43;94478.59;;;13.61;45.45
41222;BME280;26952;42.884;23.918;2023-02-26T06:02:08;94475.75;;;13.74;44.88
41222;BME280;26952;42.884;23.918;2023-02-26T06:04:34;94481.09;;;13.86;44.40
41222;BME280;26952;42.884;23.918;2023-02-26T06:07:00;94475.25;;;13.96;44.67
41222;BME280;26952;42.884;23.918;2023-02-26T06:09:25;94486.25;;;14.11;43.80
41222;BME280;26952;42.884;23.918;2023-02-26T06:11:50;94488.06;;;14.28;43.59
41222;BME280;26952;42.884;23.918;2023-02-26T06:14:16;94492.75;;;14.44;42.83
41222;BME280;26952;42.884;23.918;2023-02-26T06:16:41;94485.31;;;14.46;42.97
41222;BME280;26952;42.884;23.918;2023-02-26T06:19:06;94469.00;;;14.31;43.09
41222;BME280;26952;42.884;23.918;2023-02-26T06:21:32;94472.13;;;14.51;42.31
41222;BME280;26952;42.884;23.918;2023-02-26T06:23:57;94479.78;;;14.71;42.27
41222;BME280;26952;42.884;23.918;2023-02-26T06:26:23;94460.78;;;14.90;40.79
41222;BME280;26952;42.884;23.918;2023-02-26T06:28:48;94470.06;;;14.99;41.06
41222;BME280;26952;42.884;23.918;2023-02-26T06:31:14;94458.59;;;14.99;41.36
41222;BME280;26952;42.884;23.918;2023-02-26T06:33:39;94473.53;;;15.11;40.70
41222;BME280;26952;42.884;23.918;2023-02-26T06:36:04;94480.25;;;15.14;40.51
41222;BME280;26952;42.884;23.918;2023-02-26T06:38:30;94451.59;;;15.09;40.44
41222;BME280;26952;42.884;23.918;2023-02-26T06:40:55;94477.19;;;15.33;39.82
41222;BME280;26952;42.884;23.918;2023-02-26T06:43:21;94456.09;;;15.44;40.28
41222;BME280;26952;42.884;23.918;2023-02-26T06:45:46;94466.50;;;15.57;39.72
41222;BME280;26952;42.884;23.918;2023-02-26T06:48:12;94459.09;;;15.87;38.13
41222;BME280;26952;42.884;23.918;2023-02-26T06:50:37;94462.25;;;16.00;39.33
41222;BME280;26952;42.884;23.918;2023-02-26T06:53:04;94440.50;;;16.08;38.46
41222;BME280;26952;42.884;23.918;2023-02-26T06:55:29;94453.59;;;16.10;38.60
41222;BME280;26952;42.884;23.918;2023-02-26T06:57:56;94464.38;;;15.98;38.48
41222;BME280;26952;42.884;23.918;2023-02-26T07:00:23;94467.31;;;16.30;37.72
41222;BME280;26952;42.884;23.918;2023-02-26T07:02:49;94458.63;;;16.68;37.39
41222;BME280;26952;42.884;23.918;2023-02-26T07:05:15;94460.78;;;16.87;36.60
41222;BME280;26952;42.884;23.918;2023-02-26T07:07:41;94446.69;;;16.92;37.83
41222;BME280;26952;42.884;23.918;2023-02-26T07:10:08;94447.09;;;16.67;36.96
41222;BME280;26952;42.884;23.918;2023-02-26T07:12:33;94438.22;;;16.45;37.36
41222;BME280;26952;42.884;23.918;2023-02-26T07:14:58;94458.78;;;16.61;37.03
41222;BME280;26952;42.884;23.918;2023-02-26T07:17:24;94443.34;;;16.85;36.08
41222;BME280;26952;42.884;23.918;2023-02-26T07:19:51;94430.41;;;16.93;36.96
41222;BME280;26952;42.884;23.918;2023-02-26T07:22:17;94455.63;;;17.02;36.17
41222;BME280;26952;42.884;23.918;2023-02-26T07:24:44;94427.78;;;16.98;36.34
41222;BME280;26952;42.884;23.918;2023-02-26T07:27:09;94442.47;;;17.17;37.36
41222;BME280;26952;42.884;23.918;2023-02-26T07:29:35;94424.03;;;17.37;35.10
41222;BME280;26952;42.884;23.918;2023-02-26T07:32:01;94449.50;;;17.02;36.29
41222;BME280;26952;42.884;23.918;2023-02-26T07:34:26;94463.03;;;17.33;35.22
41222;BME280;26952;42.884;23.918;2023-02-26T07:36:52;94446.25;;;17.59;34.20
41222;BME280;26952;42.884;23.918;2023-02-26T07:39:17;94464.78;;;17.87;35.10
41222;BME280;26952;42.884;23.918;2023-02-26T07:41:43;94450.72;;;18.24;34.91
41222;BME280;26952;42.884;23.918;2023-02-26T07:44:08;94474.44;;;17.88;33.18
41222;BME280;26952;42.884;23.918;2023-02-26T07:46:33;94468.03;;;17.68;34.36
41222;BME280;26952;42.884;23.918;2023-02-26T07:48:59;94459.25;;;17.94;33.28
41222;BME280;26952;42.884;23.918;2023-02-26T07:51:24;94460.00;;;17.89;34.59
41222;BME280;26952;42.884;23.918;2023-02-26T07:53:49;94477.09;;;17.88;33.97
41222;BME280;26952;42.884;23.918;2023-02-26T07:56:15;94462.72;;;17.94;34.17
41222;BME280;26952;42.884;23.918;2023-02-26T07:58:40;94473.00;;;18.03;34.64
41222;BME280;26952;42.884;23.918;2023-02-26T08:01:06;94440.03;;;18.02;33.50
41222;BME280;26952;42.884;23.918;2023-02-26T08:03:31;94470.25;;;18.24;33.60
41222;BME280;26952;42.884;23.918;2023-02-26T08:05:57;94463.28;;;18.50;34.18
41222;BME280;26952;42.884;23.918;2023-02-26T08:08:25;94463.25;;;18.76;34.15
41222;BME280;26952;42.884;23.918;2023-02-26T08:10:50;94445.81;;;18.79;33.48
41222;BME280;26952;42.884;23.918;2023-02-26T08:13:16;94462.38;;;18.66;32.44
41222;BME280;26952;42.884;23.918;2023-02-26T08:15:41;94471.69;;;18.37;33.19
41222;BME280;26952;42.884;23.918;2023-02-26T08:18:08;94452.69;;;18.65;33.85
41222;BME280;26952;42.884;23.918;2023-02-26T08:20:34;94445.56;;;18.44;32.58
41222;BME280;26952;42.884;23.918;2023-02-26T08:22:59;94455.19;;;18.76;33.74
41222;BME280;26952;42.884;23.918;2023-02-26T08:25:24;94463.13;;;18.98;33.14
41222;BME280;26952;42.884;23.918;2023-02-26T08:27:50;94440.63;;;18.62;32.21
41222;BME280;26952;42.884;23.918;2023-02-26T08:30:15;94455.84;;;18.88;33.61
41222;BME280;26952;42.884;23.918;2023-02-26T08:32:41;94464.69;;;18.94;32.50
41222;BME280;26952;42.884;23.918;2023-02-26T08:35:08;94435.31;;;18.67;33.69
41222;BME280;26952;42.884;23.918;2023-02-26T08:37:34;94442.81;;;18.39;32.94
41222;BME280;26952;42.884;23.918;2023-02-26T08:39:59;94466.75;;;18.77;33.38
41222;BME280;26952;42.884;23.918;2023-02-26T08:42:25;94431.72;;;18.57;33.33
41222;BME280;26952;42.884;23.918;2023-02-26T08:44:50;94433.28;;;18.48;34.64
41222;BME280;26952;42.884;23.918;2023-02-26T08:47:16;94453.56;;;18.70;34.11
41222;BME280;26952;42.884;23.918;2023-02-26T08:49:41;94462.47;;;18.81;34.65
41222;BME280;26952;42.884;23.918;2023-02-26T08:52:06;94472.63;;;18.79;33.71
41222;BME280;26952;42.884;23.918;2023-02-26T08:54:32;94453.53;;;18.39;33.72
41222;BME280;26952;42.884;23.918;2023-02-26T08:56:57;94443.78;;;18.28;35.88
41222;BME280;26952;42.884;23.918;2023-02-26T08:59:23;94458.19;;;18.48;34.94
41222;BME280;26952;42.884;23.918;2023-02-26T09:01:50;94447.59;;;18.37;34.66
41222;BME280;26952;42.884;23.918;2023-02-26T09:04:15;94456.72;;;18.62;33.51
41222;BME280;26952;42.884;23.918;2023-02-26T09:06:41;94455.50;;;18.80;34.50
41222;BME280;26952;42.884;23.918;2023-02-26T09:09:06;94445.69;;;18.59;33.99
41222;BME280;26952;42.884;23.918;2023-02-26T09:11:32;94446.56;;;18.69;33.72
41222;BME280;26952;42.884;23.918;2023-02-26T09:13:58;94448.38;;;19.00;33.70
41222;BME280;26952;42.884;23.918;2023-02-26T09:16:24;94441.75;;;19.13;33.53
41222;BME280;26952;42.884;23.918;2023-02-26T09:18:50;94440.34;;;19.47;33.70
41222;BME280;26952;42.884;23.918;2023-02-26T09:21:16;94439.66;;;19.72;32.87
41222;BME280;26952;42.884;23.918;2023-02-26T09:23:41;94435.53;;;20.26;34.40
41222;BME280;26952;42.884;23.918;2023-02-26T09:26:07;94458.69;;;20.72;33.04
41222;BME280;26952;42.884;23.918;2023-02-26T09:28:33;94437.72;;;20.99;31.42
41222;BME280;26952;42.884;23.918;2023-02-26T09:30:58;94420.75;;;20.94;31.93
41222;BME280;26952;42.884;23.918;2023-02-26T09:33:24;94422.91;;;21.02;29.94
41222;BME280;26952;42.884;23.918;2023-02-26T09:35:50;94434.69;;;21.26;29.95
41222;BME280;26952;42.884;23.918;2023-02-26T09:38:17;94440.66;;;20.88;29.68
41222;BME280;26952;42.884;23.918;2023-02-26T09:40:47;94421.03;;;20.72;31.63
41222;BME280;26952;42.884;23.918;2023-02-26T09:49:38;94433.00;;;21.50;29.35
41222;BME280;26952;42.884;23.918;2023-02-26T09:54:49;94426.47;;;21.71;29.84
41222;BME280;26952;42.884;23.918;2023-02-26T09:57:34;94431.69;;;21.42;30.08
41222;BME280;26952;42.884;23.918;2023-02-26T10:00:21;94422.72;;;21.77;28.66
41222;BME280;26952;42.884;23.918;2023-02-26T10:05:39;94420.03;;;21.77;29.26
41222;BME280;26952;42.884;23.918;2023-02-26T10:08:13;94412.44;;;21.74;28.63
41222;BME280;26952;42.884;23.918;2023-02-26T10:10:58;94416.69;;;21.95;28.31
41222;BME280;26952;42.884;23.918;2023-02-26T10:13:43;94402.44;;;22.33;29.07
41222;BME280;26952;42.884;23.918;2023-02-26T10:16:14;94403.16;;;22.44;28.92
41222;BME280;26952;42.884;23.918;2023-02-26T10:18:50;94389.44;;;22.79;27.44
41222;BME280;26952;42.884;23.918;2023-02-26T10:21:35;94397.41;;;22.60;28.71
41222;BME280;26952;42.884;23.918;2023-02-26T10:24:24;94412.44;;;23.00;27.46
41222;BME280;26952;42.884;23.918;2023-02-26T10:27:03;94394.34;;;22.33;26.29
41222;BME280;26952;42.884;23.918;2023-02-26T10:32:25;94409.94;;;22.41;26.88
41222;BME280;26952;42.884;23.918;2023-02-26T10:35:01;94395.44;;;22.71;27.97
41222;BME280;26952;42.884;23.918;2023-02-26T10:37:54;94377.81;;;22.78;29.07
41222;BME280;26952;42.884;23.918;2023-02-26T10:40:34;94394.81;;;22.79;26.59
41222;BME280;26952;42.884;23.918;2023-02-26T10:43:26;94376.31;;;22.67;27.03
41222;BME280;26952;42.884;23.918;2023-02-26T10:46:14;94379.81;;;22.96;28.64
41222;BME280;26952;42.884;23.918;2023-02-26T10:48:54;94396.94;;;23.10;28.29
41222;BME280;26952;42.884;23.918;2023-02-26T10:51:28;94401.63;;;23.28;25.61
41222;BME280;26952;42.884;23.918;2023-02-26T10:54:01;94381.69;;;22.67;27.20
41222;BME280;26952;42.884;23.918;2023-02-26T10:56:30;94390.06;;;22.66;27.17
41222;BME280;26952;42.884;23.918;2023-02-26T10:58:56;94378.38;;;22.75;26.09
41222;BME280;26952;42.884;23.918;2023-02-26T11:01:24;94369.00;;;22.96;25.92
41222;BME280;26952;42.884;23.918;2023-02-26T11:04:06;94369.22;;;22.71;26.65
41222;BME280;26952;42.884;23.918;2023-02-26T11:06:36;94365.88;;;22.84;26.70
41222;BME280;26952;42.884;23.918;2023-02-26T11:09:06;94353.97;;;22.90;26.09
41222;BME280;26952;42.884;23.918;2023-02-26T11:11:49;94355.03;;;22.61;26.59
41222;BME280;26952;42.884;23.918;2023-02-26T11:14:15;94342.31;;;22.66;27.04
41222;BME280;26952;42.884;23.918;2023-02-26T11:16:46;94370.69;;;22.87;27.21
41222;BME280;26952;42.884;23.918;2023-02-26T11:19:14;94357.63;;;22.76;27.31
41222;BME280;26952;42.884;23.918;2023-02-26T11:21:43;94333.63;;;22.74;28.54
41222;BME280;26952;42.884;23.918;2023-02-26T11:24:34;94355.41;;;22.78;28.25
41222;BME280;26952;42.884;23.918;2023-02-26T11:27:03;94354.91;;;22.04;27.06
41222;BME280;26952;42.884;23.918;2023-02-26T11:29:36;94354.28;;;21.68;27.55
41222;BME280;26952;42.884;23.918;2023-02-26T11:32:03;94345.78;;;21.51;29.72
41222;BME280;26952;42.884;23.918;2023-02-26T11:34:29;94370.44;;;21.78;28.07
41222;BME280;26952;42.884;23.918;2023-02-26T11:36:57;94338.19;;;21.58;28.92
41222;BME280;26952;42.884;23.918;2023-02-26T11:39:26;94348.56;;;21.26;29.61
41222;BME280;26952;42.884;23.918;2023-02-26T11:41:56;94373.94;;;21.05;29.07
41222;BME280;26952;42.884;23.918;2023-02-26T11:44:43;94356.75;;;20.81;29.45
41222;BME280;26952;42.884;23.918;2023-02-26T11:47:16;94364.53;;;21.02;30.25
41222;BME280;26952;42.884;23.918;2023-02-26T11:49:46;94367.41;;;21.21;30.08
41222;BME280;26952;42.884;23.918;2023-02-26T11:52:32;94382.81;;;20.95;30.34
41222;BME280;26952;42.884;23.918;2023-02-26T11:55:36;94368.03;;;20.88;30.90
41222;BME280;26952;42.884;23.918;2023-02-26T11:58:00;94368.06;;;20.73;31.09
41222;BME280;26952;42.884;23.918;2023-02-26T12:00:32;94367.47;;;21.06;31.75
41222;BME280;26952;42.884;23.918;2023-02-26T12:03:09;94365.34;;;20.93;30.03
41222;BME280;26952;42.884;23.918;2023-02-26T12:05:38;94371.78;;;20.82;30.58
41222;BME280;26952;42.884;23.918;2023-02-26T12:14:03;94400.84;;;20.19;32.55
41222;BME280;26952;42.884;23.918;2023-02-26T12:19:05;94422.09;;;20.21;31.99
41222;BME280;26952;42.884;23.918;2023-02-26T12:31:08;94399.81;;;20.50;31.79
41222;BME280;26952;42.884;23.918;2023-02-26T12:35:41;94404.63;;;21.04;30.85
41222;BME280;26952;42.884;23.918;2023-02-26T12:38:25;94379.88;;;20.97;30.81
41222;BME280;26952;42.884;23.918;2023-02-26T12:46:21;94421.72;;;19.97;32.75
41222;BME280;26952;42.884;23.918;2023-02-26T13:02:56;94392.28;;;20.32;31.09
41222;BME280;26952;42.884;23.918;2023-02-26T13:08:21;94412.16;;;20.61;30.51
41222;BME280;26952;42.884;23.918;2023-02-26T13:13:24;94397.66;;;20.32;30.80
41222;BME280;26952;42.884;23.918;2023-02-26T13:26:16;94419.56;;;19.79;32.13
41222;BME280;26952;42.884;23.918;2023-02-26T13:28:49;94432.94;;;19.69;33.11
41222;BME280;26952;42.884;23.918;2023-02-26T13:31:32;94418.63;;;19.49;32.37
41222;BME280;26952;42.884;23.918;2023-02-26T13:34:03;94416.41;;;19.36;33.48
41222;BME280;26952;42.884;23.918;2023-02-26T13:36:30;94426.91;;;19.37;32.73
41222;BME280;26952;42.884;23.918;2023-02-26T13:55:55;94456.13;;;20.05;31.77
41222;BME280;26952;42.884;23.918;2023-02-26T13:58:37;94450.84;;;20.25;30.28
41222;BME280;26952;42.884;23.918;2023-02-26T14:01:17;94436.34;;;20.31;29.91
41222;BME280;26952;42.884;23.918;2023-02-26T14:03:50;94435.81;;;20.29;30.39
41222;BME280;26952;42.884;23.918;2023-02-26T14:08:52;94412.00;;;19.76;31.53
41222;BME280;26952;42.884;23.918;2023-02-26T14:11:42;94435.13;;;19.77;30.02
41222;BME280;26952;42.884;23.918;2023-02-26T14:14:22;94453.78;;;19.47;31.13
41222;BME280;26952;42.884;23.918;2023-02-26T14:19:41;94458.13;;;19.53;30.69
41222;BME280;26952;42.884;23.918;2023-02-26T14:24:57;94456.97;;;19.39;31.26
41222;BME280;26952;42.884;23.918;2023-02-26T14:27:36;94455.84;;;19.30;31.32
41222;BME280;26952;42.884;23.918;2023-02-26T14:32:49;94489.56;;;19.16;31.33
41222;BME280;26952;42.884;23.918;2023-02-26T14:35:39;94503.44;;;19.08;31.17
41222;BME280;26952;42.884;23.918;2023-02-26T14:38:36;94499.91;;;19.02;31.68
41222;BME280;26952;42.884;23.918;2023-02-26T14:41:12;94506.00;;;18.93;31.61
41222;BME280;26952;42.884;23.918;2023-02-26T14:43:48;94516.19;;;18.91;31.53
41222;BME280;26952;42.884;23.918;2023-02-26T14:46:16;94513.72;;;18.84;32.55
41222;BME280;26952;42.884;23.918;2023-02-26T14:48:42;94522.00;;;18.83;31.98
41222;BME280;26952;42.884;23.918;2023-02-26T14:57:09;94534.69;;;18.61;32.55
41222;BME280;26952;42.884;23.918;2023-02-26T14:59:58;94534.28;;;18.47;32.98
41222;BME280;26952;42.884;23.918;2023-02-26T15:02:36;94524.75;;;18.35;33.11
41222;BME280;26952;42.884;23.918;2023-02-26T15:23:04;94545.91;;;17.66;34.19
41222;BME280;26952;42.884;23.918;2023-02-26T15:25:34;94540.56;;;17.66;34.11
41222;BME280;26952;42.884;23.918;2023-02-26T15:28:02;94543.75;;;17.63;34.67
41222;BME280;26952;42.884;23.918;2023-02-26T15:30:30;94531.47;;;17.29;34.92
41222;BME280;26952;42.884;23.918;2023-02-26T15:32:58;94550.44;;;17.28;35.58
41222;BME280;26952;42.884;23.918;2023-02-26T15:35:26;94574.75;;;17.26;35.94
41222;BME280;26952;42.884;23.918;2023-02-26T15:37:55;94566.72;;;17.10;35.82
41222;BME280;26952;42.884;23.918;2023-02-26T15:40:23;94572.31;;;17.08;35.76
41222;BME280;26952;42.884;23.918;2023-02-26T15:42:52;94581.78;;;17.16;36.43
41222;BME280;26952;42.884;23.918;2023-02-26T15:45:19;94587.38;;;17.14;35.61
41222;BME280;26952;42.884;23.918;2023-02-26T15:47:53;94588.91;;;17.10;36.15
41222;BME280;26952;42.884;23.918;2023-02-26T15:50:20;94590.97;;;17.03;36.48
41222;BME280;26952;42.884;23.918;2023-02-26T15:52:53;94611.03;;;16.89;36.96
41222;BME280;26952;42.884;23.918;2023-02-26T15:55:20;94610.53;;;16.76;36.71
41222;BME280;26952;42.884;23.918;2023-02-26T15:57:46;94610.69;;;16.69;37.92
41222;BME280;26952;42.884;23.918;2023-02-26T16:00:16;94612.03;;;16.55;37.89
41222;BME280;26952;42.884;23.918;2023-02-26T16:02:48;94625.47;;;16.60;37.79